sensor_id;sensor_type;location;lat;lon;timestamp;temperature;humidity
16523;DHT22;19889;52.546;13.348;2023-03-11T00:01:23;3.70;99.90
16523;DHT22;19889;52.546;13.348;2023-03-11T00:03:50;3.90;99.90
16523;DHT22;19889;52.546;13.348;2023-03-11T00:06:17;3.90;99.90
16523;DHT22;19889;52.546;13.348;2023-03-11T00:08:44;3.90;99.90
16523;DHT22;19889;52.546;13.348;2023-03-11T00:11:13;3.90;99.90
16523;DHT22;19889;52.546;13.348;2023-03-11T00:13:40;4.40;99.90
16523;DHT22;19889;52.546;13.348;2023-03-11T00:16:07;4.00;99.90
16523;DHT22;19889;52.546;13.348;2023-03-11T00:18:33;3.80;99.90
16523;DHT22;19889;52.546;13.348;2023-03-11T00:21:00;3.70;99.90
16523;DHT22;19889;52.546;13.348;2023-03-11T00:23:28;3.60;99.90
16523;DHT22;19889;52.546;13.348;2023-03-11T00:25:55;3.70;99.90
16523;DHT22;19889;52.546;13.348;2023-03-11T00:28:25;3.70;99.90
16523;DHT22;19889;52.546;13.348;2023-03-11T00:30:53;3.80;99.90
16523;DHT22;19889;52.546;13.348;2023-03-11T00:33:19;3.70;99.90
16523;DHT22;19889;52.546;13.348;2023-03-11T00:35:48;3.70;99.90
16523;DHT22;19889;52.546;13.348;2023-03-11T00:38:16;3.70;99.90
16523;DHT22;19889;52.546;13.348;2023-03-11T00:40:44;4.00;99.90
16523;DHT22;19889;52.546;13.348;2023-03-11T00:43:12;3.80;99.90
16523;DHT22;19889;52.546;13.348;2023-03-11T00:45:40;3.90;99.90
16523;DHT22;19889;52.546;13.348;2023-03-11T00:48:07;3.70;99.90
16523;DHT22;19889;52.546;13.348;2023-03-11T00:50:36;4.20;99.90
16523;DHT22;19889;52.546;13.348;2023-03-11T00:53:03;3.80;99.90
16523;DHT22;19889;52.546;13.348;2023-03-11T00:55:32;3.60;99.90
16523;DHT22;19889;52.546;13.348;2023-03-11T00:58:04;3.70;99.90
16523;DHT22;19889;52.546;13.348;2023-03-11T01:00:39;3.70;99.90
16523;DHT22;19889;52.546;13.348;2023-03-11T01:03:07;3.50;99.90
16523;DHT22;19889;52.546;13.348;2023-03-11T01:05:34;3.50;99.90
16523;DHT22;19889;52.546;13.348;2023-03-11T01:08:02;3.50;99.90
16523;DHT22;19889;52.546;13.348;2023-03-11T01:10:30;3.50;99.90
16523;DHT22;19889;52.546;13.348;2023-03-11T01:12:58;3.50;99.90
16523;DHT22;19889;52.546;13.348;2023-03-11T01:15:28;3.70;99.90
16523;DHT22;19889;52.546;13.348;2023-03-11T01:17:59;3.70;99.90
16523;DHT22;19889;52.546;13.348;2023-03-11T01:20:26;3.60;99.90
16523;DHT22;19889;52.546;13.348;2023-03-11T01:22:53;3.70;99.90
16523;DHT22;19889;52.546;13.348;2023-03-11T01:25:22;3.30;99.90
16523;DHT22;19889;52.546;13.348;2023-03-11T01:27:49;3.80;99.90
16523;DHT22;19889;52.546;13.348;2023-03-11T01:30:18;3.20;99.90
16523;DHT22;19889;52.546;13.348;2023-03-11T01:32:46;3.30;99.90
16523;DHT22;19889;52.546;13.348;2023-03-11T01:35:16;3.30;99.90
16523;DHT22;19889;52.546;13.348;2023-03-11T01:37:43;3.30;99.90
16523;DHT22;19889;52.546;13.348;2023-03-11T01:40:14;3.20;99.90
16523;DHT22;19889;52.546;13.348;2023-03-11T01:42:42;3.40;99.90
16523;DHT22;19889;52.546;13.348;2023-03-11T01:45:30;3.20;99.90
16523;DHT22;19889;52.546;13.348;2023-03-11T01:47:59;3.30;99.90
16523;DHT22;19889;52.546;13.348;2023-03-11T01:50:33;3.20;99.90
16523;DHT22;19889;52.546;13.348;2023-03-11T01:53:00;3.20;99.90
16523;DHT22;19889;52.546;13.348;2023-03-11T01:55:28;3.30;99.90
16523;DHT22;19889;52.546;13.348;2023-03-11T01:57:57;3.30;99.90
16523;DHT22;19889;52.546;13.348;2023-03-11T02:00:25;3.30;99.90
16523;DHT22;19889;52.546;13.348;2023-03-11T02:02:54;3.40;99.90
16523;DHT22;19889;52.546;13.348;2023-03-11T02:05:24;3.50;99.90
16523;DHT22;19889;52.546;13.348;2023-03-11T02:07:54;3.10;99.90
16523;DHT22;19889;52.546;13.348;2023-03-11T02:10:25;3.10;99.90
16523;DHT22;19889;52.546;13.348;2023-03-11T02:12:53;3.10;99.90
16523;DHT22;19889;52.546;13.348;2023-03-11T02:15:25;3.10;99.90
16523;DHT22;19889;52.546;13.348;2023-03-11T02:17:52;3.00;99.90
16523;DHT22;19889;52.546;13.348;2023-03-11T02:20:31;3.00;99.90
16523;DHT22;19889;52.546;13.348;2023-03-11T02:23:10;3.10;99.90
16523;DHT22;19889;52.546;13.348;2023-03-11T02:25:40;3.10;99.90
16523;DHT22;19889;52.546;13.348;2023-03-11T02:28:13;2.80;99.90
16523;DHT22;19889;52.546;13.348;2023-03-11T02:30:43;4.00;99.90
16523;DHT22;19889;52.546;13.348;2023-03-11T02:33:12;3.10;99.90
16523;DHT22;19889;52.546;13.348;2023-03-11T02:35:40;3.10;99.90
16523;DHT22;19889;52.546;13.348;2023-03-11T02:38:07;3.10;99.90
16523;DHT22;19889;52.546;13.348;2023-03-11T02:40:43;3.10;99.90
16523;DHT22;19889;52.546;13.348;2023-03-11T02:43:17;3.10;99.90
16523;DHT22;19889;52.546;13.348;2023-03-11T02:45:46;2.80;99.90
16523;DHT22;19889;52.546;13.348;2023-03-11T02:48:14;3.00;99.90
16523;DHT22;19889;52.546;13.348;2023-03-11T02:50:43;3.00;99.90
16523;DHT22;19889;52.546;13.348;2023-03-11T02:53:13;3.10;99.90
16523;DHT22;19889;52.546;13.348;2023-03-11T02:55:40;3.00;99.90
16523;DHT22;19889;52.546;13.348;2023-03-11T02:58:07;3.00;99.90
16523;DHT22;19889;52.546;13.348;2023-03-11T03:00:36;3.00;99.90
16523;DHT22;19889;52.546;13.348;2023-03-11T03:03:05;3.00;99.90
16523;DHT22;19889;52.546;13.348;2023-03-11T03:05:33;3.00;99.90
16523;DHT22;19889;52.546;13.348;2023-03-11T03:08:01;3.00;99.90
16523;DHT22;19889;52.546;13.348;2023-03-11T03:10:29;3.00;99.90
16523;DHT22;19889;52.546;13.348;2023-03-11T03:12:56;3.00;99.90
16523;DHT22;19889;52.546;13.348;2023-03-11T03:15:24;2.90;99.90
16523;DHT22;19889;52.546;13.348;2023-03-11T03:17:52;2.90;99.90
16523;DHT22;19889;52.546;13.348;2023-03-11T03:20:20;2.90;99.90
16523;DHT22;19889;52.546;13.348;2023-03-11T03:22:50;3.00;99.90
16523;DHT22;19889;52.546;13.348;2023-03-11T03:25:19;2.90;99.90
16523;DHT22;19889;52.546;13.348;2023-03-11T03:27:47;3.00;99.90
16523;DHT22;19889;52.546;13.348;2023-03-11T03:30:15;3.00;99.90
16523;DHT22;19889;52.546;13.348;2023-03-11T03:32:43;3.00;99.90
16523;DHT22;19889;52.546;13.348;2023-03-11T03:35:15;2.90;99.90
16523;DHT22;19889;52.546;13.348;2023-03-11T03:38:04;2.90;99.90
16523;DHT22;19889;52.546;13.348;2023-03-11T03:40:31;3.20;99.90
16523;DHT22;19889;52.546;13.348;2023-03-11T03:43:01;2.90;99.90
16523;DHT22;19889;52.546;13.348;2023-03-11T03:45:30;3.40;99.90
16523;DHT22;19889;52.546;13.348;2023-03-11T03:51:05;2.90;99.90
16523;DHT22;19889;52.546;13.348;2023-03-11T03:53:34;3.10;99.90
16523;DHT22;19889;52.546;13.348;2023-03-11T03:56:03;3.10;99.90
16523;DHT22;19889;52.546;13.348;2023-03-11T03:58:32;3.00;99.90
16523;DHT22;19889;52.546;13.348;2023-03-11T04:00:59;3.70;99.90
16523;DHT22;19889;52.546;13.348;2023-03-11T04:03:27;2.80;99.90
16523;DHT22;19889;52.546;13.348;2023-03-11T04:06:09;3.10;99.90
16523;DHT22;19889;52.546;13.348;2023-03-11T04:08:36;3.10;99.90
16523;DHT22;19889;52.546;13.348;2023-03-11T04:11:05;3.20;99.90
16523;DHT22;19889;52.546;13.348;2023-03-11T04:13:34;2.90;99.90
16523;DHT22;19889;52.546;13.348;2023-03-11T04:16:02;3.60;99.90
16523;DHT22;19889;52.546;13.348;2023-03-11T04:18:30;2.90;99.90
16523;DHT22;19889;52.546;13.348;2023-03-11T04:20:57;2.90;99.90
16523;DHT22;19889;52.546;13.348;2023-03-11T04:23:25;2.90;99.90
16523;DHT22;19889;52.546;13.348;2023-03-11T04:25:53;3.40;99.90
16523;DHT22;19889;52.546;13.348;2023-03-11T04:28:20;2.90;99.90
16523;DHT22;19889;52.546;13.348;2023-03-11T04:30:47;3.10;99.90
16523;DHT22;19889;52.546;13.348;2023-03-11T04:33:14;3.00;99.90
16523;DHT22;19889;52.546;13.348;2023-03-11T04:35:41;3.10;99.90
16523;DHT22;19889;52.546;13.348;2023-03-11T04:38:08;3.10;99.90
16523;DHT22;19889;52.546;13.348;2023-03-11T04:40:37;3.20;99.90
16523;DHT22;19889;52.546;13.348;2023-03-11T04:43:05;3.20;99.90
16523;DHT22;19889;52.546;13.348;2023-03-11T04:45:32;3.00;99.90
16523;DHT22;19889;52.546;13.348;2023-03-11T04:48:02;3.70;99.90
16523;DHT22;19889;52.546;13.348;2023-03-11T04:50:30;3.10;99.90
16523;DHT22;19889;52.546;13.348;2023-03-11T04:52:57;3.10;99.90
16523;DHT22;19889;52.546;13.348;2023-03-11T04:55:25;3.70;99.90
16523;DHT22;19889;52.546;13.348;2023-03-11T04:57:53;3.40;99.90
16523;DHT22;19889;52.546;13.348;2023-03-11T05:00:22;3.00;99.90
16523;DHT22;19889;52.546;13.348;2023-03-11T05:02:56;3.00;99.90
16523;DHT22;19889;52.546;13.348;2023-03-11T05:05:23;3.90;99.90
16523;DHT22;19889;52.546;13.348;2023-03-11T05:07:50;3.20;99.90
16523;DHT22;19889;52.546;13.348;2023-03-11T05:10:17;3.30;99.90
16523;DHT22;19889;52.546;13.348;2023-03-11T05:12:48;3.10;99.90
16523;DHT22;19889;52.546;13.348;2023-03-11T05:15:17;2.70;99.90
16523;DHT22;19889;52.546;13.348;2023-03-11T05:17:44;3.10;99.90
16523;DHT22;19889;52.546;13.348;2023-03-11T05:20:13;3.30;99.90
16523;DHT22;19889;52.546;13.348;2023-03-11T05:22:40;3.40;99.90
16523;DHT22;19889;52.546;13.348;2023-03-11T05:25:08;3.80;99.90
16523;DHT22;19889;52.546;13.348;2023-03-11T05:27:36;3.10;99.90
16523;DHT22;19889;52.546;13.348;2023-03-11T05:30:06;2.90;99.90
16523;DHT22;19889;52.546;13.348;2023-03-11T05:32:37;3.10;99.90
16523;DHT22;19889;52.546;13.348;2023-03-11T05:35:06;3.20;99.90
16523;DHT22;19889;52.546;13.348;2023-03-11T05:37:34;3.10;99.90
16523;DHT22;19889;52.546;13.348;2023-03-11T05:40:05;3.30;99.90
16523;DHT22;19889;52.546;13.348;2023-03-11T05:45:06;3.00;99.90
16523;DHT22;19889;52.546;13.348;2023-03-11T05:47:33;3.10;99.90
16523;DHT22;19889;52.546;13.348;2023-03-11T05:50:02;3.10;99.90
16523;DHT22;19889;52.546;13.348;2023-03-11T05:52:30;3.10;99.90
16523;DHT22;19889;52.546;13.348;2023-03-11T05:54:58;3.30;99.90
16523;DHT22;19889;52.546;13.348;2023-03-11T05:57:28;3.40;99.90
16523;DHT22;19889;52.546;13.348;2023-03-11T06:04:53;3.10;99.90
16523;DHT22;19889;52.546;13.348;2023-03-11T06:07:21;3.20;99.90
16523;DHT22;19889;52.546;13.348;2023-03-11T06:09:49;3.30;99.90
16523;DHT22;19889;52.546;13.348;2023-03-11T06:12:17;3.10;99.90
16523;DHT22;19889;52.546;13.348;2023-03-11T06:15:10;3.30;99.90
16523;DHT22;19889;52.546;13.348;2023-03-11T06:17:38;3.10;99.90
16523;DHT22;19889;52.546;13.348;2023-03-11T06:20:08;3.30;99.90
16523;DHT22;19889;52.546;13.348;2023-03-11T06:22:37;3.10;99.90
16523;DHT22;19889;52.546;13.348;2023-03-11T06:25:04;3.30;99.90
16523;DHT22;19889;52.546;13.348;2023-03-11T06:27:32;3.10;99.90
16523;DHT22;19889;52.546;13.348;2023-03-11T06:29:59;3.20;99.90
16523;DHT22;19889;52.546;13.348;2023-03-11T06:32:29;3.20;99.90
16523;DHT22;19889;52.546;13.348;2023-03-11T06:34:56;3.70;99.90
16523;DHT22;19889;52.546;13.348;2023-03-11T06:37:23;3.10;99.90
16523;DHT22;19889;52.546;13.348;2023-03-11T06:39:52;3.30;99.90
16523;DHT22;19889;52.546;13.348;2023-03-11T06:42:22;3.10;99.90
16523;DHT22;19889;52.546;13.348;2023-03-11T06:44:50;3.20;99.90
16523;DHT22;19889;52.546;13.348;2023-03-11T06:47:17;3.30;99.90
16523;DHT22;19889;52.546;13.348;2023-03-11T06:49:44;3.30;99.90
16523;DHT22;19889;52.546;13.348;2023-03-11T06:52:11;3.10;99.90
16523;DHT22;19889;52.546;13.348;2023-03-11T06:54:38;3.70;99.90
16523;DHT22;19889;52.546;13.348;2023-03-11T06:57:07;3.10;99.90
16523;DHT22;19889;52.546;13.348;2023-03-11T06:59:36;3.20;99.90
16523;DHT22;19889;52.546;13.348;2023-03-11T07:02:04;3.10;99.90
16523;DHT22;19889;52.546;13.348;2023-03-11T07:04:32;3.10;99.90
16523;DHT22;19889;52.546;13.348;2023-03-11T07:06:59;3.40;99.90
16523;DHT22;19889;52.546;13.348;2023-03-11T07:09:26;3.20;99.90
16523;DHT22;19889;52.546;13.348;2023-03-11T07:11:54;3.30;99.90
16523;DHT22;19889;52.546;13.348;2023-03-11T07:14:29;3.20;99.90
16523;DHT22;19889;52.546;13.348;2023-03-11T07:16:56;3.40;99.90
16523;DHT22;19889;52.546;13.348;2023-03-11T07:19:32;3.30;99.90
16523;DHT22;19889;52.546;13.348;2023-03-11T07:21:59;3.00;99.90
16523;DHT22;19889;52.546;13.348;2023-03-11T07:24:26;2.80;99.90
16523;DHT22;19889;52.546;13.348;2023-03-11T07:26:53;3.00;99.90
16523;DHT22;19889;52.546;13.348;2023-03-11T07:29:19;3.00;99.90
16523;DHT22;19889;52.546;13.348;2023-03-11T07:31:48;3.00;99.90
16523;DHT22;19889;52.546;13.348;2023-03-11T07:34:15;3.00;99.90
16523;DHT22;19889;52.546;13.348;2023-03-11T07:36:42;3.00;99.90
16523;DHT22;19889;52.546;13.348;2023-03-11T07:39:13;3.00;99.90
16523;DHT22;19889;52.546;13.348;2023-03-11T07:41:40;3.10;99.90
16523;DHT22;19889;52.546;13.348;2023-03-11T07:44:09;3.20;99.90
16523;DHT22;19889;52.546;13.348;2023-03-11T07:46:37;3.00;99.90
16523;DHT22;19889;52.546;13.348;2023-03-11T07:49:05;3.00;99.90
16523;DHT22;19889;52.546;13.348;2023-03-11T07:51:35;3.10;99.90
16523;DHT22;19889;52.546;13.348;2023-03-11T07:54:02;3.00;99.90
16523;DHT22;19889;52.546;13.348;2023-03-11T07:56:32;3.10;99.90
16523;DHT22;19889;52.546;13.348;2023-03-11T07:59:00;3.10;99.90
16523;DHT22;19889;52.546;13.348;2023-03-11T08:01:28;3.10;99.90
16523;DHT22;19889;52.546;13.348;2023-03-11T08:04:02;3.20;99.90
16523;DHT22;19889;52.546;13.348;2023-03-11T08:06:32;3.20;99.90
16523;DHT22;19889;52.546;13.348;2023-03-11T08:09:02;3.20;99.90
16523;DHT22;19889;52.546;13.348;2023-03-11T08:11:29;3.20;99.90
16523;DHT22;19889;52.546;13.348;2023-03-11T08:13:56;4.00;99.90
16523;DHT22;19889;52.546;13.348;2023-03-11T08:16:24;3.30;99.90
16523;DHT22;19889;52.546;13.348;2023-03-11T08:18:52;3.30;99.90
16523;DHT22;19889;52.546;13.348;2023-03-11T08:21:21;3.30;99.90
16523;DHT22;19889;52.546;13.348;2023-03-11T08:23:50;4.30;99.90
16523;DHT22;19889;52.546;13.348;2023-03-11T08:26:19;3.80;99.90
16523;DHT22;19889;52.546;13.348;2023-03-11T08:31:16;3.90;99.90
16523;DHT22;19889;52.546;13.348;2023-03-11T08:33:45;4.00;99.90
16523;DHT22;19889;52.546;13.348;2023-03-11T08:36:14;4.10;99.90
16523;DHT22;19889;52.546;13.348;2023-03-11T08:38:41;4.10;99.90
16523;DHT22;19889;52.546;13.348;2023-03-11T08:41:10;4.60;99.90
16523;DHT22;19889;52.546;13.348;2023-03-11T08:43:37;4.50;99.90
16523;DHT22;19889;52.546;13.348;2023-03-11T08:46:05;4.40;99.90
16523;DHT22;19889;52.546;13.348;2023-03-11T08:48:32;4.50;99.90
16523;DHT22;19889;52.546;13.348;2023-03-11T08:50:59;4.50;99.90
16523;DHT22;19889;52.546;13.348;2023-03-11T08:53:27;4.20;99.90
16523;DHT22;19889;52.546;13.348;2023-03-11T08:55:54;4.20;99.90
16523;DHT22;19889;52.546;13.348;2023-03-11T08:58:23;4.00;99.90
16523;DHT22;19889;52.546;13.348;2023-03-11T09:00:50;4.20;99.90
16523;DHT22;19889;52.546;13.348;2023-03-11T09:03:16;4.40;99.90
16523;DHT22;19889;52.546;13.348;2023-03-11T09:05:43;4.30;99.90
16523;DHT22;19889;52.546;13.348;2023-03-11T09:08:10;4.30;99.90
16523;DHT22;19889;52.546;13.348;2023-03-11T09:10:37;4.20;99.90
16523;DHT22;19889;52.546;13.348;2023-03-11T09:13:04;4.30;99.90
16523;DHT22;19889;52.546;13.348;2023-03-11T09:15:32;4.10;99.90
16523;DHT22;19889;52.546;13.348;2023-03-11T09:18:01;4.10;99.90
16523;DHT22;19889;52.546;13.348;2023-03-11T09:20:27;4.10;99.90
16523;DHT22;19889;52.546;13.348;2023-03-11T09:22:54;4.20;99.90
16523;DHT22;19889;52.546;13.348;2023-03-11T09:25:21;4.70;99.90
16523;DHT22;19889;52.546;13.348;2023-03-11T09:27:48;4.20;99.90
16523;DHT22;19889;52.546;13.348;2023-03-11T09:30:16;4.20;99.90
16523;DHT22;19889;52.546;13.348;2023-03-11T09:32:44;4.20;99.90
16523;DHT22;19889;52.546;13.348;2023-03-11T09:35:11;4.30;99.90
16523;DHT22;19889;52.546;13.348;2023-03-11T09:37:38;4.20;99.90
16523;DHT22;19889;52.546;13.348;2023-03-11T09:40:07;4.50;99.90
16523;DHT22;19889;52.546;13.348;2023-03-11T09:42:39;4.20;99.90
16523;DHT22;19889;52.546;13.348;2023-03-11T09:45:14;4.10;99.90
16523;DHT22;19889;52.546;13.348;2023-03-11T09:47:54;4.50;99.90
16523;DHT22;19889;52.546;13.348;2023-03-11T09:50:29;4.10;99.90
16523;DHT22;19889;52.546;13.348;2023-03-11T09:53:11;3.60;99.90
16523;DHT22;19889;52.546;13.348;2023-03-11T09:55:45;4.00;99.90
16523;DHT22;19889;52.546;13.348;2023-03-11T09:58:16;4.20;99.90
16523;DHT22;19889;52.546;13.348;2023-03-11T10:00:46;4.00;99.90
16523;DHT22;19889;52.546;13.348;2023-03-11T10:03:33;4.80;99.90
16523;DHT22;19889;52.546;13.348;2023-03-11T10:06:17;4.00;99.90
16523;DHT22;19889;52.546;13.348;2023-03-11T10:08:50;4.10;99.90
16523;DHT22;19889;52.546;13.348;2023-03-11T10:11:32;4.20;99.90
16523;DHT22;19889;52.546;13.348;2023-03-11T10:14:11;4.60;99.90
16523;DHT22;19889;52.546;13.348;2023-03-11T10:16:44;4.00;99.90
16523;DHT22;19889;52.546;13.348;2023-03-11T10:19:22;4.00;99.90
16523;DHT22;19889;52.546;13.348;2023-03-11T10:21:57;4.10;99.90
16523;DHT22;19889;52.546;13.348;2023-03-11T10:24:40;4.00;99.90
16523;DHT22;19889;52.546;13.348;2023-03-11T10:27:14;4.00;99.90
16523;DHT22;19889;52.546;13.348;2023-03-11T10:29:49;4.00;99.90
16523;DHT22;19889;52.546;13.348;2023-03-11T10:32:21;5.00;99.90
16523;DHT22;19889;52.546;13.348;2023-03-11T10:34:55;4.00;99.90
16523;DHT22;19889;52.546;13.348;2023-03-11T10:37:26;4.10;99.90
16523;DHT22;19889;52.546;13.348;2023-03-11T10:39:53;4.10;99.90
16523;DHT22;19889;52.546;13.348;2023-03-11T10:42:23;4.00;99.90
16523;DHT22;19889;52.546;13.348;2023-03-11T10:44:50;4.10;99.90
16523;DHT22;19889;52.546;13.348;2023-03-11T10:47:19;4.10;99.90
16523;DHT22;19889;52.546;13.348;2023-03-11T10:49:46;4.10;99.90
16523;DHT22;19889;52.546;13.348;2023-03-11T10:52:14;4.10;99.90
16523;DHT22;19889;52.546;13.348;2023-03-11T10:54:42;4.10;99.90
16523;DHT22;19889;52.546;13.348;2023-03-11T10:57:23;4.10;99.90
16523;DHT22;19889;52.546;13.348;2023-03-11T10:59:52;4.20;99.90
16523;DHT22;19889;52.546;13.348;2023-03-11T11:02:25;4.10;99.90
16523;DHT22;19889;52.546;13.348;2023-03-11T11:05:06;4.10;99.90
16523;DHT22;19889;52.546;13.348;2023-03-11T11:07:37;4.10;99.90
16523;DHT22;19889;52.546;13.348;2023-03-11T11:10:26;4.00;99.90
16523;DHT22;19889;52.546;13.348;2023-03-11T11:12:56;4.10;99.90
16523;DHT22;19889;52.546;13.348;2023-03-11T11:15:25;4.10;99.90
16523;DHT22;19889;52.546;13.348;2023-03-11T11:17:54;4.10;99.90
16523;DHT22;19889;52.546;13.348;2023-03-11T11:20:23;4.20;99.90
16523;DHT22;19889;52.546;13.348;2023-03-11T11:22:54;4.00;99.90
16523;DHT22;19889;52.546;13.348;2023-03-11T11:25:28;4.20;99.90
16523;DHT22;19889;52.546;13.348;2023-03-11T11:27:56;4.20;99.90
16523;DHT22;19889;52.546;13.348;2023-03-11T11:30:24;4.20;99.90
16523;DHT22;19889;52.546;13.348;2023-03-11T11:32:51;4.20;99.90
16523;DHT22;19889;52.546;13.348;2023-03-11T11:35:21;4.90;99.90
16523;DHT22;19889;52.546;13.348;2023-03-11T11:37:52;4.20;99.90
16523;DHT22;19889;52.546;13.348;2023-03-11T11:40:26;4.20;99.90
16523;DHT22;19889;52.546;13.348;2023-03-11T11:42:56;4.50;99.90
16523;DHT22;19889;52.546;13.348;2023-03-11T11:45:28;4.90;99.90
16523;DHT22;19889;52.546;13.348;2023-03-11T11:47:59;4.70;99.90
16523;DHT22;19889;52.546;13.348;2023-03-11T11:50:34;4.40;99.90
16523;DHT22;19889;52.546;13.348;2023-03-11T11:53:12;4.50;99.90
16523;DHT22;19889;52.546;13.348;2023-03-11T11:55:46;4.50;99.90
16523;DHT22;19889;52.546;13.348;2023-03-11T11:58:13;4.50;99.90
16523;DHT22;19889;52.546;13.348;2023-03-11T12:00:48;4.50;99.90
16523;DHT22;19889;52.546;13.348;2023-03-11T12:03:36;4.50;99.90
16523;DHT22;19889;52.546;13.348;2023-03-11T12:06:14;4.50;99.90
16523;DHT22;19889;52.546;13.348;2023-03-11T12:08:49;4.90;99.90
16523;DHT22;19889;52.546;13.348;2023-03-11T12:11:25;5.00;99.90
16523;DHT22;19889;52.546;13.348;2023-03-11T12:13:59;4.50;99.90
16523;DHT22;19889;52.546;13.348;2023-03-11T12:16:36;4.50;99.90
16523;DHT22;19889;52.546;13.348;2023-03-11T12:19:18;4.50;99.90
16523;DHT22;19889;52.546;13.348;2023-03-11T12:22:24;4.50;99.90
16523;DHT22;19889;52.546;13.348;2023-03-11T12:25:09;4.50;99.90
16523;DHT22;19889;52.546;13.348;2023-03-11T12:27:44;4.50;99.90
16523;DHT22;19889;52.546;13.348;2023-03-11T12:30:15;4.40;99.90
16523;DHT22;19889;52.546;13.348;2023-03-11T12:32:47;4.40;99.90
16523;DHT22;19889;52.546;13.348;2023-03-11T12:35:22;4.40;99.90
16523;DHT22;19889;52.546;13.348;2023-03-11T12:38:04;4.40;99.90
16523;DHT22;19889;52.546;13.348;2023-03-11T12:40:49;4.30;99.90
16523;DHT22;19889;52.546;13.348;2023-03-11T12:43:27;4.30;99.90
16523;DHT22;19889;52.546;13.348;2023-03-11T12:46:15;4.40;99.90
16523;DHT22;19889;52.546;13.348;2023-03-11T12:48:43;4.30;99.90
16523;DHT22;19889;52.546;13.348;2023-03-11T12:51:38;4.30;99.90
16523;DHT22;19889;52.546;13.348;2023-03-11T12:54:27;4.40;99.90
16523;DHT22;19889;52.546;13.348;2023-03-11T12:56:58;4.50;99.90
16523;DHT22;19889;52.546;13.348;2023-03-11T13:03:12;4.50;99.90
16523;DHT22;19889;52.546;13.348;2023-03-11T13:05:51;4.50;99.90
16523;DHT22;19889;52.546;13.348;2023-03-11T13:08:22;4.50;99.90
16523;DHT22;19889;52.546;13.348;2023-03-11T13:10:51;5.00;99.90
16523;DHT22;19889;52.546;13.348;2023-03-11T13:13:36;4.40;99.90
16523;DHT22;19889;52.546;13.348;2023-03-11T13:16:36;4.50;99.90
16523;DHT22;19889;52.546;13.348;2023-03-11T13:22:41;4.60;99.90
16523;DHT22;19889;52.546;13.348;2023-03-11T13:25:28;4.60;99.90
16523;DHT22;19889;52.546;13.348;2023-03-11T13:28:00;4.50;99.90
16523;DHT22;19889;52.546;13.348;2023-03-11T13:30:36;4.60;99.90
16523;DHT22;19889;52.546;13.348;2023-03-11T13:33:17;4.40;99.90
16523;DHT22;19889;52.546;13.348;2023-03-11T13:36:01;4.50;99.90
16523;DHT22;19889;52.546;13.348;2023-03-11T13:41:29;4.50;99.90
16523;DHT22;19889;52.546;13.348;2023-03-11T13:43:59;4.50;99.90
16523;DHT22;19889;52.546;13.348;2023-03-11T13:46:35;4.50;99.90
16523;DHT22;19889;52.546;13.348;2023-03-11T13:49:06;4.50;99.90
16523;DHT22;19889;52.546;13.348;2023-03-11T13:51:39;4.80;99.90
16523;DHT22;19889;52.546;13.348;2023-03-11T13:54:21;4.70;99.90
16523;DHT22;19889;52.546;13.348;2023-03-11T13:56:52;4.70;99.90
16523;DHT22;19889;52.546;13.348;2023-03-11T13:59:22;4.40;99.90
16523;DHT22;19889;52.546;13.348;2023-03-11T14:01:53;4.50;99.90
16523;DHT22;19889;52.546;13.348;2023-03-11T14:04:25;5.30;99.90
16523;DHT22;19889;52.546;13.348;2023-03-11T14:06:53;4.60;99.90
16523;DHT22;19889;52.546;13.348;2023-03-11T14:09:22;4.30;99.90
16523;DHT22;19889;52.546;13.348;2023-03-11T14:11:51;4.70;99.90
16523;DHT22;19889;52.546;13.348;2023-03-11T14:14:29;4.70;99.90
16523;DHT22;19889;52.546;13.348;2023-03-11T14:16:59;4.60;99.90
16523;DHT22;19889;52.546;13.348;2023-03-11T14:19:28;4.50;99.90
16523;DHT22;19889;52.546;13.348;2023-03-11T14:21:55;4.40;99.90
16523;DHT22;19889;52.546;13.348;2023-03-11T14:24:24;4.60;99.90
16523;DHT22;19889;52.546;13.348;2023-03-11T14:26:53;4.60;99.90
16523;DHT22;19889;52.546;13.348;2023-03-11T15:12:41;4.30;99.90
16523;DHT22;19889;52.546;13.348;2023-03-11T15:15:22;4.20;99.90
16523;DHT22;19889;52.546;13.348;2023-03-11T15:17:54;4.20;99.90
16523;DHT22;19889;52.546;13.348;2023-03-11T15:20:25;4.80;99.90
16523;DHT22;19889;52.546;13.348;2023-03-11T15:22:54;4.00;99.90
16523;DHT22;19889;52.546;13.348;2023-03-11T15:25:26;4.10;99.90
16523;DHT22;19889;52.546;13.348;2023-03-11T15:27:54;4.10;99.90
16523;DHT22;19889;52.546;13.348;2023-03-11T15:30:23;4.30;99.90
16523;DHT22;19889;52.546;13.348;2023-03-11T15:32:50;4.00;99.90
16523;DHT22;19889;52.546;13.348;2023-03-11T15:35:19;4.40;99.90
16523;DHT22;19889;52.546;13.348;2023-03-11T15:37:50;4.10;99.90
16523;DHT22;19889;52.546;13.348;2023-03-11T15:40:22;4.10;99.90
16523;DHT22;19889;52.546;13.348;2023-03-11T15:43:09;4.10;99.90
16523;DHT22;19889;52.546;13.348;2023-03-11T15:45:41;3.80;99.90
16523;DHT22;19889;52.546;13.348;2023-03-11T15:48:09;4.10;99.90
16523;DHT22;19889;52.546;13.348;2023-03-11T15:50:45;4.50;99.90
16523;DHT22;19889;52.546;13.348;2023-03-11T15:53:14;4.20;99.90
16523;DHT22;19889;52.546;13.348;2023-03-11T15:55:42;4.10;99.90
16523;DHT22;19889;52.546;13.348;2023-03-11T15:58:11;4.20;99.90
16523;DHT22;19889;52.546;13.348;2023-03-11T16:00:41;4.20;99.90
16523;DHT22;19889;52.546;13.348;2023-03-11T16:03:08;4.20;99.90
16523;DHT22;19889;52.546;13.348;2023-03-11T16:05:35;4.20;99.90
16523;DHT22;19889;52.546;13.348;2023-03-11T16:08:02;4.20;99.90
16523;DHT22;19889;52.546;13.348;2023-03-11T16:10:34;4.30;99.90
16523;DHT22;19889;52.546;13.348;2023-03-11T16:13:02;4.30;99.90
16523;DHT22;19889;52.546;13.348;2023-03-11T16:15:30;4.30;99.90
16523;DHT22;19889;52.546;13.348;2023-03-11T16:17:59;4.70;99.90
16523;DHT22;19889;52.546;13.348;2023-03-11T16:20:28;4.30;99.90
16523;DHT22;19889;52.546;13.348;2023-03-11T16:22:57;4.30;99.90
16523;DHT22;19889;52.546;13.348;2023-03-11T16:25:30;4.60;99.90
16523;DHT22;19889;52.546;13.348;2023-03-11T16:27:59;4.20;99.90
16523;DHT22;19889;52.546;13.348;2023-03-11T16:30:28;4.20;99.90
16523;DHT22;19889;52.546;13.348;2023-03-11T16:32:55;4.20;99.90
16523;DHT22;19889;52.546;13.348;2023-03-11T16:35:23;4.40;99.90
16523;DHT22;19889;52.546;13.348;2023-03-11T16:37:50;5.00;99.90
16523;DHT22;19889;52.546;13.348;2023-03-11T16:40:20;4.20;99.90
16523;DHT22;19889;52.546;13.348;2023-03-11T16:42:50;4.20;99.90
16523;DHT22;19889;52.546;13.348;2023-03-11T16:45:21;4.20;99.90
16523;DHT22;19889;52.546;13.348;2023-03-11T16:47:48;4.20;99.90
16523;DHT22;19889;52.546;13.348;2023-03-11T16:50:15;4.20;99.90
16523;DHT22;19889;52.546;13.348;2023-03-11T16:52:42;4.20;99.90
16523;DHT22;19889;52.546;13.348;2023-03-11T16:55:09;4.20;99.90
16523;DHT22;19889;52.546;13.348;2023-03-11T16:57:36;4.40;99.90